Time;durP1;ratioP1;P1;durP2;ratioP2;P2;SDS_P1;SDS_P2;PMS_P1;PMS_P2;Temp;Humidity;BMP_temperature;BMP_pressure;BME280_temperature;BME280_humidity;BME280_pressure;Samples;Min_cycle;Max_cycle;Signal;HPM_P1;HPM_P2
2021/07/14 00:00:48;;;;;;;;;7.75;6.75;;;;;26.24;46.36;101408.03;5061295;28;45323;-72
2021/07/14 00:03:14;;;;;;;;;8.00;7.00;;;;;26.05;46.33;101379.19;5059924;28;45461;-73
2021/07/14 00:05:40;;;;;;;;;10.00;9.25;;;;;26.36;46.14;101417.13;5061285;28;45473;-71
2021/07/14 00:08:08;;;;;;;;;9.75;8.50;;;;;25.98;45.99;101367.66;5060737;28;45473;-72
2021/07/14 00:10:35;;;;;;;;;8.25;8.25;;;;;25.98;46.14;101369.50;5061374;28;45235;-73
2021/07/14 00:13:22;;;;;;;;;9.00;8.00;;;;;26.05;45.99;101373.88;5060414;28;45406;-71
2021/07/14 00:23:27;;;;;;;;;9.50;9.00;;;;;26.17;45.88;101390.16;5060755;28;45224;-73
2021/07/14 00:25:53;;;;;;;;;9.00;9.00;;;;;26.03;46.01;101367.09;5059538;28;48015;-72
2021/07/14 00:28:19;;;;;;;;;6.00;6.00;;;;;26.38;45.92;101428.47;5060580;28;45182;-73
2021/07/14 00:31:00;;;;;;;;;8.00;7.00;;;;;26.30;45.44;101409.94;5064898;28;45142;-73
2021/07/14 00:33:27;;;;;;;;;9.75;8.50;;;;;26.15;45.89;101386.84;5060566;28;45185;-73
2021/07/14 00:35:53;;;;;;;;;9.75;9.75;;;;;26.10;46.01;101383.13;5075983;28;47292;-73
2021/07/14 00:38:18;;;;;;;;;8.00;8.00;;;;;26.33;45.93;101420.22;5071345;28;45279;-73
2021/07/14 00:40:44;;;;;;;;;7.75;7.75;;;;;26.40;45.87;101425.59;5059530;28;45254;-72
2021/07/14 00:43:09;;;;;;;;;9.00;9.00;;;;;26.17;46.08;101392.00;5079510;28;45583;-72
2021/07/14 00:45:36;;;;;;;;;10.75;8.00;;;;;26.42;45.79;101434.22;5080830;28;45542;-72
2021/07/14 00:48:02;;;;;;;;;10.50;9.50;;;;;26.16;45.85;101379.69;5080745;28;45330;-72
2021/07/14 00:50:28;;;;;;;;;8.25;8.25;;;;;26.33;45.91;101409.53;5080873;28;45315;-73
2021/07/14 00:52:54;;;;;;;;;6.75;6.75;;;;;26.03;45.66;101359.09;5080447;28;45407;-73
2021/07/14 00:55:23;;;;;;;;;8.00;8.00;;;;;26.29;45.64;101403.78;5096459;27;47783;-73
2021/07/14 00:57:49;;;;;;;;;7.75;7.75;;;;;26.42;46.05;101423.53;5080567;28;45162;-73
2021/07/14 01:00:15;;;;;;;;;8.50;8.50;;;;;26.27;45.64;101410.31;5080311;28;45287;-73
2021/07/14 01:02:40;;;;;;;;;9.00;8.00;;;;;26.26;45.99;101401.50;5078944;28;45607;-73
2021/07/14 01:05:10;;;;;;;;;7.00;7.00;;;;;26.42;45.83;101426.22;5096385;27;46384;-73
2021/07/14 01:07:49;;;;;;;;;7.50;7.50;;;;;26.42;45.76;101426.22;5078819;28;45317;-73
2021/07/14 01:10:23;;;;;;;;;9.75;9.00;;;;;26.42;46.08;101434.22;5080555;28;45170;-73
2021/07/14 01:13:06;;;;;;;;;11.75;9.00;;;;;26.43;46.02;101435.88;5075604;28;45252;-72
2021/07/14 01:15:49;;;;;;;;;8.50;7.50;;;;;26.21;45.51;101398.59;5059777;28;46319;-72
2021/07/14 01:18:25;;;;;;;;;6.75;6.75;;;;;26.42;45.73;101431.53;5060076;28;45336;-73
2021/07/14 01:20:58;;;;;;;;;8.00;8.00;;;;;26.41;45.83;101429.91;5059327;28;45319;-72
2021/07/14 01:23:30;;;;;;;;;9.75;7.00;;;;;26.42;45.83;101426.22;5058350;28;45335;-73
2021/07/14 01:26:12;;;;;;;;;7.25;7.00;;;;;26.42;45.44;101418.19;5058529;28;48259;-72
2021/07/14 01:28:41;;;;;;;;;7.00;7.00;;;;;26.03;45.43;101359.91;5059590;28;45315;-73
2021/07/14 01:31:11;;;;;;;;;6.75;6.75;;;;;26.39;45.65;101407.91;5064725;28;45249;-72
2021/07/14 01:33:40;;;;;;;;;7.25;6.75;;;;;26.03;45.88;101359.91;5059313;28;45518;-73
2021/07/14 01:36:13;;;;;;;;;7.75;7.00;;;;;26.16;45.58;101375.19;5058412;27;47088;-73
2021/07/14 01:38:41;;;;;;;;;8.00;6.25;;;;;26.41;45.36;101409.38;5065894;28;45397;-73
2021/07/14 01:41:08;;;;;;;;;7.25;6.50;;;;;26.33;45.80;101403.38;5095796;27;45370;-73
2021/07/14 01:43:54;;;;;;;;;8.50;8.50;;;;;26.05;45.48;101354.38;5078333;28;45465;-73
2021/07/14 01:46:24;;;;;;;;;7.50;7.50;;;;;26.17;45.72;101379.50;5079820;28;46231;-73
2021/07/14 01:48:51;;;;;;;;;7.75;7.50;;;;;26.40;45.41;101421.06;5080081;28;45248;-73
2021/07/14 01:51:18;;;;;;;;;7.00;7.00;;;;;26.41;45.77;101424.56;5078665;28;45371;-73
2021/07/14 01:53:45;;;;;;;;;7.00;7.00;;;;;26.41;45.67;101425.38;5079862;28;45444;-73
2021/07/14 01:56:12;;;;;;;;;7.00;7.00;;;;;26.05;45.54;101371.19;5079682;27;45472;-71
2021/07/14 01:58:40;;;;;;;;;7.00;6.50;;;;;26.08;45.66;101377.97;5078484;28;45264;-71
2021/07/14 02:01:07;;;;;;;;;6.25;6.00;;;;;25.97;45.71;101366.00;5078302;28;45379;-71
2021/07/14 02:06:03;;;;;;;;;6.75;6.75;;;;;26.25;45.64;101407.03;5079506;28;46322;-71
2021/07/14 02:08:30;;;;;;;;;9.25;7.50;;;;;26.04;45.67;101390.06;5079236;28;45312;-71
2021/07/14 02:10:58;;;;;;;;;7.25;6.25;;;;;26.04;45.24;101385.56;5079663;28;45524;-71
2021/07/14 02:13:26;;;;;;;;;6.25;5.75;;;;;26.23;45.57;101420.53;5078706;28;45393;-71
2021/07/14 02:15:58;;;;;;;;;9.00;7.75;;;;;26.13;45.43;101398.72;5079366;28;46540;-71
2021/07/14 02:18:28;;;;;;;;;8.25;8.25;;;;;26.08;45.51;101383.31;5079689;28;45437;-71
2021/07/14 02:20:57;;;;;;;;;8.00;6.25;;;;;26.03;45.62;101381.25;5079132;27;45421;-71
2021/07/14 02:23:23;;;;;;;;;8.75;7.50;;;;;26.31;45.20;101419.56;5079238;28;45346;-71
2021/07/14 02:25:49;;;;;;;;;5.75;5.75;;;;;26.18;45.65;101409.63;5079222;28;45413;-71
2021/07/14 02:28:14;;;;;;;;;7.75;5.00;;;;;26.36;45.64;101417.13;5079400;28;45310;-71
2021/07/14 02:30:40;;;;;;;;;10.25;8.50;;;;;26.01;45.59;101366.47;5068732;28;45342;-71
2021/07/14 02:33:09;;;;;;;;;9.75;8.50;;;;;26.12;45.46;101378.44;5060804;28;45568;-71
2021/07/14 02:35:39;;;;;;;;;7.25;7.25;;;;;26.12;45.28;101381.09;5062624;28;45335;-71
2021/07/14 02:38:13;;;;;;;;;6.50;6.50;;;;;26.00;45.30;101362.13;5073623;28;45477;-71
2021/07/14 02:41:02;;;;;;;;;10.00;8.75;;;;;26.43;45.51;101427.03;5062548;28;45357;-73
2021/07/14 02:43:28;;;;;;;;;8.00;7.25;;;;;26.22;45.22;101397.56;5061824;28;45405;-71
2021/07/14 02:45:59;;;;;;;;;7.25;7.25;;;;;26.03;46.06;101367.09;5062013;28;45473;-71
2021/07/14 02:48:27;;;;;;;;;6.00;6.00;;;;;25.94;45.45;101369.88;5062485;28;45307;-71
2021/07/14 02:50:54;;;;;;;;;8.75;8.75;;;;;26.13;45.53;101380.88;5062182;28;46054;-71
2021/07/14 02:53:24;;;;;;;;;7.25;7.25;;;;;26.19;45.50;101397.97;5062108;28;45543;-71
2021/07/14 02:55:59;;;;;;;;;8.25;7.00;;;;;26.13;45.27;101380.06;5060644;28;46407;-71
2021/07/14 02:58:29;;;;;;;;;6.75;6.75;;;;;26.10;45.51;101378.59;5061916;28;45272;-71
2021/07/14 03:00:57;;;;;;;;;9.00;7.50;;;;;26.28;45.74;101401.31;5061775;28;45437;-71
2021/07/14 03:03:23;;;;;;;;;9.00;8.00;;;;;26.18;45.77;101390.97;5061915;28;45359;-71
2021/07/14 03:05:54;;;;;;;;;7.50;7.50;;;;;25.93;45.75;101356.75;5061652;28;45484;-71
2021/07/14 03:08:24;;;;;;;;;8.50;8.50;;;;;26.01;45.11;101372.63;5061838;28;45543;-71
2021/07/14 03:10:52;;;;;;;;;7.75;7.75;;;;;26.01;45.43;101367.28;5061746;28;45240;-71
2021/07/14 03:13:19;;;;;;;;;9.00;8.00;;;;;26.40;45.55;101433.59;5079570;28;45479;-71
2021/07/14 03:15:45;;;;;;;;;6.00;6.00;;;;;26.25;45.48;101405.19;5081887;28;45451;-71
2021/07/14 03:18:13;;;;;;;;;7.00;7.00;;;;;26.31;45.39;101416.91;5082099;28;45600;-71
2021/07/14 03:20:39;;;;;;;;;8.00;8.00;;;;;26.02;45.19;101370.78;5082190;28;45483;-71
2021/07/14 03:23:07;;;;;;;;;6.25;6.25;;;;;26.00;45.40;101368.28;5081859;28;45350;-71
2021/07/14 03:25:32;;;;;;;;;5.50;5.50;;;;;26.10;45.40;101377.81;5082003;28;46594;-71
2021/07/14 03:28:00;;;;;;;;;6.50;5.75;;;;;26.05;45.76;101376.53;5080245;28;45371;-71
2021/07/14 03:30:26;;;;;;;;;8.00;7.00;;;;;26.25;45.16;101409.69;5073215;28;45437;-72
2021/07/14 03:32:51;;;;;;;;;6.75;6.75;;;;;26.12;45.29;101395.25;5061275;28;45617;-72
2021/07/14 03:35:17;;;;;;;;;6.00;6.00;;;;;26.12;45.60;101395.25;5061677;28;46474;-71
2021/07/14 03:37:45;;;;;;;;;7.75;7.75;;;;;26.00;45.43;101370.97;5073747;28;45491;-72
2021/07/14 03:40:11;;;;;;;;;6.75;6.75;;;;;26.33;45.42;101422.88;5061909;28;45221;-72
2021/07/14 03:42:39;;;;;;;;;5.25;5.00;;;;;25.95;45.07;101365.38;5075283;28;45320;-72
2021/07/14 03:45:06;;;;;;;;;7.00;7.00;;;;;26.06;45.39;101377.38;5081208;28;45578;-72
2021/07/14 03:47:33;;;;;;;;;7.00;7.00;;;;;25.90;45.48;101357.16;5081786;28;45580;-72
2021/07/14 03:49:59;;;;;;;;;6.00;6.00;;;;;26.30;45.10;101423.28;5082424;28;45417;-71
2021/07/14 03:52:25;;;;;;;;;7.00;6.00;;;;;26.24;45.12;101410.69;5082577;28;45336;-71
2021/07/14 03:54:51;;;;;;;;;7.25;7.25;;;;;26.08;45.30;101383.31;5081916;28;45349;-72
2021/07/14 03:57:17;;;;;;;;;6.50;6.50;;;;;26.07;45.24;101371.81;5080034;28;45526;-72
2021/07/14 03:59:43;;;;;;;;;6.00;6.00;;;;;26.01;45.75;101366.47;5081289;28;45390;-72
2021/07/14 04:02:13;;;;;;;;;6.25;4.75;;;;;26.04;45.27;101382.06;5081122;28;45411;-72
2021/07/14 04:04:40;;;;;;;;;7.00;7.00;;;;;26.41;45.64;101438.72;5081757;28;45414;-72
2021/07/14 04:07:19;;;;;;;;;6.00;6.00;;;;;26.28;44.97;101425.31;5080702;28;45469;-72
2021/07/14 04:09:46;;;;;;;;;6.25;6.25;;;;;26.02;45.31;101370.78;5081833;28;45465;-72
2021/07/14 04:12:12;;;;;;;;;5.75;5.75;;;;;26.01;45.28;101380.63;5080340;28;45429;-72
2021/07/14 04:14:38;;;;;;;;;7.25;6.75;;;;;26.17;45.65;101406.16;5080795;28;46322;-72
2021/07/14 04:17:03;;;;;;;;;6.00;6.00;;;;;26.19;45.25;101411.28;5081014;28;45593;-72
2021/07/14 04:19:29;;;;;;;;;9.00;8.00;;;;;25.99;45.21;101379.16;5081595;28;45489;-72
2021/07/14 04:21:54;;;;;;;;;5.50;5.50;;;;;26.04;45.34;101380.25;5080741;28;45722;-72
2021/07/14 04:24:20;;;;;;;;;5.25;5.25;;;;;26.18;45.42;101406.97;5081191;28;46348;-72
2021/07/14 04:26:46;;;;;;;;;8.25;6.25;;;;;26.06;45.26;101394.19;5080995;28;45378;-72
2021/07/14 04:29:12;;;;;;;;;5.00;5.00;;;;;25.99;45.40;101393.31;5080017;28;45404;-72
2021/07/14 04:31:38;;;;;;;;;7.00;7.00;;;;;25.97;45.22;101403.34;5062461;28;45339;-73
2021/07/14 04:34:04;;;;;;;;;8.25;7.75;;;;;26.07;45.23;101416.34;5060626;28;45485;-72
2021/07/14 04:36:29;;;;;;;;;6.00;6.00;;;;;26.30;45.00;101457.94;5063171;28;45263;-72
2021/07/14 04:38:58;;;;;;;;;8.25;6.50;;;;;26.39;45.44;101472.78;5070885;27;45205;-72
2021/07/14 04:41:24;;;;;;;;;5.75;5.75;;;;;26.14;45.38;101437.72;5063545;28;45398;-72
2021/07/14 04:43:50;;;;;;;;;6.75;6.75;;;;;25.91;45.21;101399.63;5080537;28;45625;-72
2021/07/14 04:46:15;;;;;;;;;6.00;6.00;;;;;26.38;45.59;101481.81;5077063;28;45431;-73
2021/07/14 04:48:41;;;;;;;;;6.50;6.50;;;;;26.09;45.46;101434.81;5081052;28;45521;-72
2021/07/14 04:51:06;;;;;;;;;6.00;5.25;;;;;26.29;45.60;101475.78;5080200;28;45275;-72
2021/07/14 04:53:32;;;;;;;;;6.67;6.67;;;;;26.00;45.30;101431.44;5080313;28;45829;-72
2021/07/14 04:55:59;;;;;;;;;4.50;4.25;;;;;26.00;45.36;101431.44;5080557;28;45239;-72
2021/07/14 04:58:24;;;;;;;;;6.33;5.67;;;;;26.06;45.25;101444.03;5080997;28;45183;-72
2021/07/14 05:00:50;;;;;;;;;5.25;5.25;;;;;26.14;44.88;101453.72;5080089;28;45375;-72
2021/07/14 05:03:15;;;;;;;;;4.25;4.25;;;;;25.91;44.98;101425.44;5080496;28;46293;-72
2021/07/14 05:05:41;;;;;;;;;5.50;5.00;;;;;26.01;45.32;101449.09;5080463;28;45279;-72
2021/07/14 05:08:06;;;;;;;;;5.50;5.50;;;;;26.03;45.20;101450.56;5080766;28;45484;-72
2021/07/14 05:10:32;;;;;;;;;7.25;6.75;;;;;26.02;44.93;101462.22;5080316;28;45428;-72
2021/07/14 05:12:58;;;;;;;;;6.00;6.00;;;;;26.26;45.16;101504.69;5080171;28;46271;-72
2021/07/14 05:15:23;;;;;;;;;5.00;5.00;;;;;26.14;45.32;101488.38;5064956;28;45500;-72
2021/07/14 05:17:49;;;;;;;;;6.50;6.00;;;;;26.13;45.18;101487.56;5059250;28;46357;-72
2021/07/14 05:20:15;;;;;;;;;6.50;6.50;;;;;26.23;44.97;101505.88;5059492;28;45363;-72
2021/07/14 05:22:40;;;;;;;;;7.00;5.50;;;;;26.01;45.26;101462.44;5059736;28;45362;-72
2021/07/14 05:25:07;;;;;;;;;6.75;6.75;;;;;26.38;45.18;101527.16;5059566;28;45214;-72
2021/07/14 05:27:33;;;;;;;;;6.00;6.00;;;;;26.12;45.04;101479.75;5060150;28;45397;-72
2021/07/14 05:29:59;;;;;;;;;6.50;6.00;;;;;26.15;44.93;101482.84;5063849;28;45298;-73
2021/07/14 05:32:25;;;;;;;;;7.25;7.25;;;;;26.03;44.80;101474.56;5075185;27;45677;-72
2021/07/14 05:34:50;;;;;;;;;6.75;6.00;;;;;26.02;44.82;101478.22;5059956;28;45295;-72
2021/07/14 05:37:16;;;;;;;;;6.00;6.00;;;;;26.39;44.95;101539.47;5068842;28;45604;-72
2021/07/14 05:39:41;;;;;;;;;4.00;4.00;;;;;25.95;45.17;101462.19;5062596;27;45380;-72
2021/07/14 05:42:07;;;;;;;;;6.00;6.00;;;;;26.10;45.04;101485.28;5059278;28;45408;-72
2021/07/14 05:44:33;;;;;;;;;6.25;6.25;;;;;26.10;45.41;101485.28;5059324;28;45330;-72
2021/07/14 05:46:59;;;;;;;;;5.50;5.50;;;;;26.05;44.75;101475.19;5059668;28;45362;-72
2021/07/14 05:49:24;;;;;;;;;7.75;7.75;;;;;26.26;44.88;101520.69;5059630;28;45232;-72
2021/07/14 05:51:50;;;;;;;;;4.00;4.00;;;;;26.06;44.98;101484.84;5059212;28;46023;-72
2021/07/14 05:54:15;;;;;;;;;5.75;5.75;;;;;26.06;45.57;101487.50;5059776;28;45162;-72
2021/07/14 05:56:41;;;;;;;;;6.75;5.50;;;;;26.00;45.18;101472.28;5059633;28;45214;-72
2021/07/14 05:59:06;;;;;;;;;7.50;7.50;;;;;26.07;45.16;101488.34;5059162;28;45305;-72
2021/07/14 06:01:32;;;;;;;;;6.00;6.00;;;;;25.95;45.24;101469.34;5058923;28;45767;-72
2021/07/14 06:03:57;;;;;;;;;7.00;5.25;;;;;25.92;45.31;101456.41;5059552;28;45296;-72
2021/07/14 06:06:23;;;;;;;;;5.25;5.25;;;;;26.15;45.31;101487.38;5060054;28;45347;-72
2021/07/14 06:08:48;;;;;;;;;4.75;4.75;;;;;26.03;45.19;101473.72;5061476;28;45372;-72
2021/07/14 06:11:14;;;;;;;;;5.25;5.25;;;;;25.94;45.33;101465.06;5063075;28;46258;-72
2021/07/14 06:13:39;;;;;;;;;7.00;6.00;;;;;26.09;44.87;101483.63;5062506;28;45403;-73
2021/07/14 06:16:05;;;;;;;;;7.25;5.25;;;;;25.79;45.14;101435.81;5061987;28;45640;-72
2021/07/14 06:18:30;;;;;;;;;7.25;6.25;;;;;26.17;44.82;101496.00;5063036;28;45371;-72
2021/07/14 06:20:56;;;;;;;;;6.75;6.00;;;;;26.02;45.04;101478.22;5062761;28;45393;-72
2021/07/14 06:23:21;;;;;;;;;5.50;5.50;;;;;26.16;45.01;101508.50;5062734;28;45363;-72
2021/07/14 06:25:47;;;;;;;;;5.25;5.25;;;;;26.35;45.42;101526.72;5062904;28;46011;-72
2021/07/14 06:28:13;;;;;;;;;6.50;4.75;;;;;26.05;44.93;101477.84;5062896;28;45327;-72
2021/07/14 06:30:42;;;;;;;;;5.50;5.50;;;;;26.09;44.71;101486.31;5066699;28;45451;-72
2021/07/14 06:33:08;;;;;;;;;6.00;6.00;;;;;25.99;45.34;101475.97;5061249;28;45276;-72
2021/07/14 06:35:34;;;;;;;;;7.00;6.00;;;;;26.03;44.96;101477.22;5061866;28;46062;-72
2021/07/14 06:37:59;;;;;;;;;5.25;5.25;;;;;25.86;45.09;101444.69;5073584;28;46044;-73
2021/07/14 06:40:25;;;;;;;;;4.00;4.00;;;;;26.01;45.10;101473.94;5060627;28;47323;-72
2021/07/14 06:42:50;;;;;;;;;5.00;5.00;;;;;25.96;45.12;101463.03;5077217;28;45429;-72
2021/07/14 06:45:16;;;;;;;;;7.50;6.50;;;;;25.93;45.15;101474.06;5082729;28;45476;-72
2021/07/14 06:47:42;;;;;;;;;5.00;4.25;;;;;26.31;45.17;101530.78;5082648;28;45424;-72
2021/07/14 06:50:12;;;;;;;;;5.00;5.00;;;;;26.23;44.69;101524.56;5082709;28;46537;-73
2021/07/14 06:52:39;;;;;;;;;4.75;4.75;;;;;25.92;44.94;101481.22;5080799;28;45308;-73
2021/07/14 06:55:06;;;;;;;;;5.50;5.50;;;;;26.21;44.99;101533.78;5082849;28;45479;-73
2021/07/14 06:57:31;;;;;;;;;4.00;4.00;;;;;25.95;45.05;101482.69;5082446;27;45480;-72
2021/07/14 06:59:57;;;;;;;;;4.00;3.50;;;;;26.31;44.99;101542.28;5082250;28;45848;-72
2021/07/14 07:02:22;;;;;;;;;6.50;6.50;;;;;26.27;45.01;101533.00;5080618;28;45471;-72
2021/07/14 07:04:48;;;;;;;;;5.00;5.00;;;;;26.03;45.08;101495.06;5082979;28;45381;-72
2021/07/14 07:07:13;;;;;;;;;6.00;5.00;;;;;26.33;44.99;101542.94;5082370;27;45501;-73
2021/07/14 07:09:39;;;;;;;;;6.25;6.25;;;;;25.93;44.92;101490.06;5082368;28;45402;-72
2021/07/14 07:12:05;;;;;;;;;6.25;4.75;;;;;26.09;44.96;101504.97;5076516;28;45535;-72
2021/07/14 07:14:30;;;;;;;;;4.25;4.25;;;;;26.02;45.04;101504.91;5060363;28;45274;-72
2021/07/14 07:16:55;;;;;;;;;5.00;5.00;;;;;25.95;45.10;101483.53;5061535;28;45273;-73
2021/07/14 07:19:21;;;;;;;;;5.50;5.50;;;;;26.28;45.34;101537.34;5060459;28;45340;-73
2021/07/14 07:21:50;;;;;;;;;6.50;5.50;;;;;26.34;44.88;101555.22;5061376;28;45529;-73
2021/07/14 07:24:17;;;;;;;;;5.00;5.00;;;;;25.96;45.29;101489.69;5062292;28;45386;-74
2021/07/14 07:26:45;;;;;;;;;4.00;4.00;;;;;26.03;45.04;101506.56;5061640;28;45561;-73
2021/07/14 07:29:11;;;;;;;;;5.00;5.00;;;;;26.05;45.19;101499.19;5063034;28;45274;-73
2021/07/14 07:31:36;;;;;;;;;5.00;5.00;;;;;26.41;44.86;101548.09;5064907;27;45333;-73
2021/07/14 07:34:02;;;;;;;;;4.00;4.00;;;;;26.41;44.80;101545.44;5061823;28;45254;-72
2021/07/14 07:36:28;;;;;;;;;5.00;5.00;;;;;26.06;44.52;101497.34;5062535;28;45244;-72
2021/07/14 07:38:53;;;;;;;;;4.00;4.00;;;;;26.07;44.72;101493.69;5064209;28;46295;-73
2021/07/14 07:41:22;;;;;;;;;5.00;5.00;;;;;26.02;44.72;101494.22;5065041;28;45251;-73
2021/07/14 07:43:47;;;;;;;;;5.00;5.00;;;;;26.43;44.76;101549.75;5080630;28;45424;-73
2021/07/14 07:46:14;;;;;;;;;5.00;4.00;;;;;26.27;45.09;101523.19;5081251;28;45463;-73
2021/07/14 07:48:39;;;;;;;;;3.50;3.50;;;;;26.11;44.49;101491.44;5082087;28;46423;-73
2021/07/14 07:51:06;;;;;;;;;5.50;5.50;;;;;26.16;44.83;101505.84;5081322;28;45511;-73
2021/07/14 07:53:32;;;;;;;;;5.75;4.75;;;;;26.05;45.00;101485.03;5081771;28;45245;-73
2021/07/14 07:55:57;;;;;;;;;5.00;4.50;;;;;26.43;44.87;101536.41;5081369;28;45474;-72
2021/07/14 07:58:23;;;;;;;;;5.00;5.00;;;;;26.36;45.28;101539.84;5081680;28;46295;-72
2021/07/14 08:00:49;;;;;;;;;6.00;6.00;;;;;26.30;45.00;101519.28;5081137;28;45486;-72
2021/07/14 08:03:14;;;;;;;;;5.50;5.50;;;;;26.43;44.72;101555.91;5081761;28;45339;-73
2021/07/14 08:05:41;;;;;;;;;4.00;4.00;;;;;26.30;44.55;101527.31;5081326;28;45630;-73
2021/07/14 08:08:07;;;;;;;;;4.00;4.00;;;;;26.12;44.88;101506.44;5081276;28;46286;-73
2021/07/14 08:10:32;;;;;;;;;4.00;4.00;;;;;26.24;45.19;101526.22;5081144;28;45325;-72
2021/07/14 08:12:58;;;;;;;;;5.00;5.00;;;;;26.08;44.84;101500.66;5081289;28;45394;-73
2021/07/14 08:15:24;;;;;;;;;3.00;3.00;;;;;26.36;44.47;101550.50;5080974;28;45316;-73
2021/07/14 08:17:49;;;;;;;;;5.00;5.00;;;;;26.32;44.82;101535.94;5080699;28;45499;-73
2021/07/14 08:20:15;;;;;;;;;3.00;3.00;;;;;26.43;45.06;101563.09;5081228;28;45392;-73
2021/07/14 08:22:41;;;;;;;;;6.00;6.00;;;;;26.42;45.01;101559.59;5081060;28;45236;-72
2021/07/14 08:25:08;;;;;;;;;3.50;3.50;;;;;26.28;45.07;101543.47;5081240;28;45368;-73
2021/07/14 08:27:35;;;;;;;;;5.00;5.00;;;;;26.28;44.80;101543.47;5080616;28;46522;-73
2021/07/14 08:30:00;;;;;;;;;4.00;4.00;;;;;26.23;44.67;101537.09;5074804;28;45479;-72
2021/07/14 08:32:27;;;;;;;;;5.00;4.00;;;;;26.32;44.70;101551.09;5060285;28;45515;-72
2021/07/14 08:34:53;;;;;;;;;5.75;4.00;;;;;26.21;44.54;101539.09;5060848;28;45425;-73
2021/07/14 08:37:19;;;;;;;;;5.25;4.00;;;;;26.05;44.89;101519.69;5063226;28;46526;-73
2021/07/14 08:39:44;;;;;;;;;5.50;5.50;;;;;26.01;44.90;101508.59;5059282;28;45387;-76
2021/07/14 08:42:14;;;;;;;;;5.00;5.00;;;;;26.20;44.88;101540.97;5071253;28;45820;-76
2021/07/14 08:44:39;;;;;;;;;4.00;4.00;;;;;26.21;45.17;101531.09;5080721;28;45263;-75
2021/07/14 08:47:07;;;;;;;;;5.75;5.00;;;;;26.18;44.83;101537.66;5079167;28;47883;-73
2021/07/14 08:49:34;;;;;;;;;5.67;3.67;;;;;26.05;43.86;101528.50;5080900;28;45429;-79
2021/07/14 08:52:00;;;;;;;;;4.00;4.00;;;;;26.18;43.29;101546.47;5080359;28;45464;-79
2021/07/14 08:54:26;;;;;;;;;5.75;5.75;;;;;26.01;43.46;101515.75;5080847;28;45259;-77
2021/07/14 08:56:51;;;;;;;;;5.00;5.00;;;;;25.95;43.95;101512.84;5073798;28;45579;-75
2021/07/14 08:59:19;;;;;;;;;3.33;3.33;;;;;26.26;44.21;101553.53;5066464;28;45252;-75
2021/07/14 09:01:45;;;;;;;;;4.50;4.25;;;;;26.15;43.86;101527.38;5060301;28;45399;-76
2021/07/14 09:04:11;;;;;;;;;4.00;3.67;;;;;26.21;44.12;101526.59;5060293;28;45318;-75
2021/07/14 09:06:37;;;;;;;;;4.25;4.25;;;;;26.26;44.37;101537.50;5059237;28;46463;-74
2021/07/14 09:09:03;;;;;;;;;3.25;3.25;;;;;26.38;44.24;101545.00;5057037;28;45393;-74
2021/07/14 09:11:29;;;;;;;;;4.75;4.75;;;;;26.48;44.42;101571.38;5056033;27;45369;-77
2021/07/14 09:13:54;;;;;;;;;6.00;4.75;;;;;26.29;44.12;101528.31;5057467;28;45654;-72
2021/07/14 09:16:34;;;;;;;;;3.75;3.75;;;;;26.55;43.99;101560.75;5056275;28;47947;-72
2021/07/14 09:19:30;;;;;;;;;5.50;5.50;;;;;26.35;44.31;101527.53;5065594;28;45505;-72
2021/07/14 09:21:57;;;;;;;;;3.67;3.67;;;;;26.24;44.34;101496.88;5094812;27;45349;-73
2021/07/14 09:24:27;;;;;;;;;3.00;3.00;;;;;26.63;44.01;101556.09;5080575;28;45288;-73
2021/07/14 09:26:56;;;;;;;;;4.00;4.00;;;;;26.43;44.22;101515.91;5080012;28;45404;-73
2021/07/14 09:29:22;;;;;;;;;3.25;3.25;;;;;26.49;44.15;101514.34;5078570;28;45350;-73
2021/07/14 09:31:48;;;;;;;;;2.00;2.00;;;;;26.76;43.82;101551.88;5060973;28;45469;-73
2021/07/14 09:34:31;;;;;;;;;5.25;5.25;;;;;26.36;43.79;101486.50;5060215;28;45531;-70
2021/07/14 09:36:59;;;;;;;;;4.50;4.00;;;;;26.84;44.03;101551.72;5067378;28;45465;-70
2021/07/14 09:39:35;;;;;;;;;5.00;4.00;;;;;26.71;44.07;101524.94;5065084;28;45329;-70
2021/07/14 09:42:10;;;;;;;;;3.75;3.25;;;;;26.64;44.08;101506.22;5066783;28;45515;-70
2021/07/14 09:44:45;;;;;;;;;3.00;3.00;;;;;26.83;43.69;101539.38;5079871;28;45262;-70
2021/07/14 09:47:19;;;;;;;;;7.00;4.75;;;;;26.87;43.99;101537.16;5078494;28;47994;-71
2021/07/14 09:49:48;;;;;;;;;4.00;4.00;;;;;26.92;43.48;101549.91;5079703;27;45492;-74
2021/07/14 09:52:21;;;;;;;;;4.00;4.00;;;;;26.98;43.36;101562.47;5078201;28;45429;-70
2021/07/14 09:54:47;;;;;;;;;6.25;6.25;;;;;26.82;44.13;101544.94;5079965;28;45551;-70
2021/07/14 09:57:15;;;;;;;;;4.25;4.25;;;;;26.85;43.81;101552.56;5078182;28;46801;-73
2021/07/14 09:59:42;;;;;;;;;4.75;4.75;;;;;26.88;43.47;101559.34;5079711;28;45311;-73
2021/07/14 10:02:13;;;;;;;;;2.75;2.75;;;;;26.75;44.16;101528.88;5079177;28;45432;-71
2021/07/14 10:04:40;;;;;;;;;5.00;4.25;;;;;26.85;43.96;101544.53;5079175;28;45450;-73
2021/07/14 10:07:24;;;;;;;;;4.50;4.50;;;;;26.80;44.10;101534.47;5078699;28;45496;-73
2021/07/14 10:09:50;;;;;;;;;4.00;4.00;;;;;26.59;43.32;101504.16;5079735;28;45334;-73
2021/07/14 10:12:26;;;;;;;;;4.00;4.00;;;;;27.01;43.97;101556.72;5079030;28;45472;-73
2021/07/14 10:14:52;;;;;;;;;4.00;4.00;;;;;26.78;43.47;101536.47;5078782;28;45368;-72
2021/07/14 10:17:37;;;;;;;;;4.50;4.50;;;;;27.00;43.58;101573.78;5077346;28;47824;-72
2021/07/14 10:20:20;;;;;;;;;3.00;3.00;;;;;27.02;43.58;101581.59;5078856;28;45419;-72
2021/07/14 10:22:51;;;;;;;;;5.00;5.00;;;;;26.83;43.83;101551.91;5079035;28;45498;-72
2021/07/14 10:25:18;;;;;;;;;4.00;4.00;;;;;26.94;43.80;101562.03;5077896;28;45200;-72
2021/07/14 10:27:46;;;;;;;;;3.67;3.67;;;;;26.95;44.05;101560.19;5079255;28;45449;-72
2021/07/14 10:30:14;;;;;;;;;3.00;3.00;;;;;26.90;44.06;101558.13;5082023;27;45624;-72
2021/07/14 10:32:42;;;;;;;;;5.00;4.00;;;;;26.89;43.96;101551.13;5058707;28;45433;-72
2021/07/14 10:35:14;;;;;;;;;3.75;3.75;;;;;26.90;43.61;101551.94;5058765;28;45248;-72
2021/07/14 10:37:44;;;;;;;;;3.00;3.00;;;;;26.90;43.97;101560.78;5070508;28;45713;-72
2021/07/14 10:40:10;;;;;;;;;3.75;3.75;;;;;26.94;43.69;101567.38;5058694;28;45256;-72
2021/07/14 10:42:36;;;;;;;;;3.00;3.00;;;;;26.70;43.72;101525.97;5072885;28;45552;-72
2021/07/14 10:45:05;;;;;;;;;4.25;4.25;;;;;26.64;43.50;101524.91;5079063;28;45437;-72
2021/07/14 10:47:31;;;;;;;;;4.25;4.25;;;;;26.76;43.85;101548.38;5078583;28;45448;-72
2021/07/14 10:49:58;;;;;;;;;4.00;4.00;;;;;26.98;43.86;101583.00;5079097;28;45439;-72
2021/07/14 10:52:24;;;;;;;;;5.00;3.00;;;;;26.88;43.78;101573.50;5079316;28;45267;-72
2021/07/14 10:54:54;;;;;;;;;6.25;6.25;;;;;26.83;43.81;101554.56;5068380;28;45479;-71
2021/07/14 10:57:20;;;;;;;;;6.25;6.25;;;;;26.95;43.76;101579.72;5061619;27;45735;-70
2021/07/14 10:59:48;;;;;;;;;9.00;9.00;;;;;26.90;43.55;101568.81;5062639;27;45355;-72
2021/07/14 11:02:15;;;;;;;;;7.75;7.75;;;;;26.89;43.21;101572.47;5061823;27;46488;-70
2021/07/14 11:04:42;;;;;;;;;9.00;8.50;;;;;27.00;43.51;101578.28;5064025;27;45301;-70
2021/07/14 11:07:08;;;;;;;;;6.75;6.75;;;;;26.78;43.54;101549.00;5063175;27;45523;-71
2021/07/14 11:09:43;;;;;;;;;7.75;7.00;;;;;26.83;43.29;101558.06;5059788;27;45445;-70
2021/07/14 11:12:14;;;;;;;;;7.00;6.00;;;;;26.85;43.39;101569.38;5079498;27;45473;-69
2021/07/14 11:14:41;;;;;;;;;7.50;7.00;;;;;26.82;43.30;101583.13;5063374;27;45450;-73
2021/07/14 11:17:09;;;;;;;;;8.00;8.00;;;;;26.72;42.73;101546.09;5061328;27;45766;-73
2021/07/14 11:19:53;;;;;;;;;6.75;6.50;;;;;26.87;43.18;101571.84;5062206;27;45716;-75
2021/07/14 11:22:51;;;;;;;;;7.75;7.75;;;;;26.89;43.66;101568.97;5062484;27;45478;-69
2021/07/14 11:25:19;;;;;;;;;9.00;9.00;;;;;26.92;43.46;101571.25;5070281;28;45651;-76
2021/07/14 11:27:46;;;;;;;;;9.00;9.00;;;;;26.83;43.27;101555.41;5066690;28;46440;-75
2021/07/14 11:30:12;;;;;;;;;8.00;8.00;;;;;26.91;43.00;101570.44;5068409;27;45456;-74
2021/07/14 11:32:40;;;;;;;;;6.75;6.75;;;;;26.94;43.42;101570.06;5062239;27;45387;-74
2021/07/14 11:35:13;;;;;;;;;6.50;6.50;;;;;26.98;43.21;101575.84;5065017;28;45205;-74
2021/07/14 11:37:55;;;;;;;;;6.00;6.00;;;;;26.83;43.07;101544.72;5072123;28;45441;-75